Tropical Cyclones
[Index]
Season 2020-2021 Tropical Cyclone NIRAN Track Map
Season 2020-2021 Summaries: [BoM-AU]
<<- Previous TC | BoM 2020-2021 Season | Next TC ->>

click for intensity scale information  Lat/long Grid: Show Hide

 Date Labels: Show Hide

Bureau of Meteorology Tropical Cyclone Data

Name: NIRAN

27 Feb 2021 00:00 UTC to 05 Mar 2021 18:00 UTC

    date/time    lat    long    hPa   cat  kts
2021-02-27 00   15.8   149.2   1002         25          
2021-02-27 06   15.7   149.9   1000         25          
2021-02-27 12   15.9   149.7   1000         25          
2021-02-27 18   16.2   148.4   1000         25          
2021-02-28 00   16.8   148.3    999         25          
2021-02-28 06   17.2   148.1    998         30          
2021-02-28 12   17.2   148.2    998         35          
2021-02-28 18   17.3   148.1    995    1    35          
2021-03-01 00   17.5   147.3    998         35          
2021-03-01 06   16.7   146.6    994    1    35          
2021-03-01 12   16.1   146.9    993    1    40          
2021-03-01 18   15.4   147.6    984    2    40          
2021-03-02 00   15.1   147.5    986    1    45          
2021-03-02 06   14.7   147.7    982    2    50          
2021-03-02 12   14.6   147.8    982    2    50          
2021-03-02 18   14.5   147.9    982    2    50          
2021-03-03 00   14.7   147.7    978    2    55          
2021-03-03 06   14.8   147.9    976    2    60          
2021-03-03 12   14.8   148.0    976    2    60          
2021-03-03 18   14.9   148.2    974    2    60          
2021-03-04 00   15.1   148.6    968    3    70          
2021-03-04 06   15.4   149.5    961    3    80          
2021-03-04 12   15.4   150.6    961    3    80          
2021-03-04 18   15.8   152.5    958    3    85          
2021-03-05 00   16.6   154.4    954    4    90          
2021-03-05 06   17.7   156.9    944    4    100          
2021-03-05 12   18.7   159.1    931    4    110          
2021-03-05 18   19.9   161.4    931    4    110          
Winds are 10-min average.

Tropical cyclone tracks developed by Michael Bath using data from the Bureau of Meteorology and Google Maps.


Document: tropical_cyclone_niran.htm
Updated: 20 April 2021
[Australian Severe Weather index] [Copyright Notice] [Email Contacts] [Search This Site] [Privacy Policy]


Main Index Home Page Stock Weather Photos Extreme Storms Discussion Storm News and Storm Chasing Reports Tropical Cyclones / Hurricanes / Typhoons Weather Data and Links Wild Fires / Bushfires Weather Observation Techniques Weather Picture Catalogue Tornado Pictures and Reports Stock Video Footage and DVDs for sale